LFPOLFTH

Guest
Details From LFPO - Paris Orly
To LFTH - Le Palyvestre Navy
Flight Number -
Tags Generated
Created
Modified
Stats Distance 372 nm / 689 km
Max Altitude 0 ft / 0 m
Waypoints 3
Social Downloads 1
Likes 0
Share VATSIM

Download

Looking for another format? Having issues loading an existing format? Contact us
Advertisement - Login to hide

Notes

Generated

Route

LFPO TURIL LFTH

ID Type Via Altitude Latitude Longitude Leg Dist Tot Dist Heading (true) Name
O LFPO APT - 0 ft / 0 m 48.71772˚ 2.37681˚ - 0 nm - -
TURIL FIX - 0 ft / 0 m 43.22667˚ 6.02389˚ 363 nm 363 nm 154° / 157° -
O LFTH APT - 0 ft / 0 m 43.10192˚ 6.13980˚ 9 nm 372 nm 146° / 146° -

Altitude Profile

Advertisement - Login to hide

Weather


0- 5 10 15 20 25 30 35+ Temperature / ° C

Clouds and Precipitation
Forecast for 2018-05-25 00:00 UTC. Updated 5 hours ago

Ground ~20,000 ft ~40,000 ft Winds

LFPO

Details ICAO LFPO (ORY)
Name Paris Orly
Region France
Timezone Europe/Paris (UTC+2.0)
Stats Elevation 291 ft / 89 m (AMSL)
Location 48.726360° 2.367029°
Runways 3
Magnetic Variation 0.659° E

METAR

LFPO 250330Z 28002KT CAVOK 12/11 Q1016 NOSIG

Decode

TAF

TAF LFPO 242300Z 2500/2606 36003KT CAVOK PROB30 TEMPO 2503/2507 3000 BR BKN005 BECMG 2508/2511 04006KT 9999 SCT040 TEMPO 2514/2523 SHRA SCT050CB PROB30 TEMPO 2515/2523 06015G25KT 2000 -TSRAGR BKN050CB

Decode

Departure Runways

ID Width Length Bearing (true) Bearing (mag) Surface Threshold Offset Overrun Length
02 197 ft / 60 m 7,873 ft / 2,400 m 18.29° 17.63° Concrete 0 ft / 0 m 0 ft / 0 m
06 148 ft / 45 m 11,952 ft / 3,643 m 61.78° 61.12° Asphalt 984 ft / 300 m 197 ft / 60 m
08 148 ft / 45 m 10,868 ft / 3,313 m 74.36° 73.70° Concrete 0 ft / 0 m 1,050 ft / 320 m
20 197 ft / 60 m 7,873 ft / 2,400 m 198.30° 197.64° Concrete 0 ft / 0 m 0 ft / 0 m
24 148 ft / 45 m 11,952 ft / 3,643 m 241.81° 241.15° Asphalt 0 ft / 0 m 197 ft / 60 m
26 148 ft / 45 m 10,868 ft / 3,313 m 254.39° 253.73° Concrete 1,427 ft / 435 m 0 ft / 0 m

LFTH

Details ICAO LFTH (TLN)
Name Le Palyvestre Navy
Region France
Timezone Europe/Paris (UTC+2.0)
Stats Elevation 6 ft / 2 m (AMSL)
Location 43.098120° 6.149761°
Runways 2
Magnetic Variation 1.822° E

METAR

LFTH 250330Z AUTO 03004KT CAVOK 13/12 Q1016 TEMPO 4000 BR

Decode

TAF

TAF LFTH 250200Z 2503/2603 VRB03KT CAVOK PROB30 TEMPO 2503/2506 4000 BR TEMPO 2509/2516 17009KT

Decode

Destination Runways

ID Width Length Bearing (true) Bearing (mag) Surface Threshold Offset Overrun Length
05 148 ft / 45 m 6,956 ft / 2,120 m 51.12° 49.30° Concrete 722 ft / 220 m 361 ft / 110 m
14 164 ft / 50 m 6,302 ft / 1,921 m 135.18° 133.36° Concrete 951 ft / 290 m 0 ft / 0 m
23 148 ft / 45 m 6,956 ft / 2,120 m 231.13° 229.31° Concrete 0 ft / 0 m 141 ft / 43 m
32 164 ft / 50 m 6,302 ft / 1,921 m 315.20° 313.38° Concrete 295 ft / 90 m 443 ft / 135 m

Popular Alternatives